Time;durP1;ratioP1;P1;durP2;ratioP2;P2;SDS_P1;SDS_P2;PMS_P1;PMS_P2;Temp;Humidity;BMP_temperature;BMP_pressure;BME280_temperature;BME280_humidity;BME280_pressure;Samples;Min_cycle;Max_cycle;Signal;HPM_P1;HPM_P2
2021/04/14 00:01:58;;;;;;;13.20;9.20;;;;;;;10.06;65.87;102137.47;4975693;28;20445;-88
2021/04/14 00:04:25;;;;;;;10.88;7.97;;;;;;;10.06;65.58;102134.00;4974141;28;20035;-88
2021/04/14 00:06:54;;;;;;;12.10;8.65;;;;;;;10.06;66.24;102134.84;4974005;28;20038;-88
2021/04/14 00:09:19;;;;;;;11.63;9.00;;;;;;;9.88;67.06;102131.16;4974939;28;20027;-88
2021/04/14 00:11:44;;;;;;;12.50;9.13;;;;;;;9.98;67.19;102136.06;4974626;28;20169;-88
2021/04/14 00:14:10;;;;;;;10.45;8.57;;;;;;;10.05;66.93;102137.53;4975025;28;20034;-88
2021/04/14 00:16:36;;;;;;;13.43;9.30;;;;;;;10.21;65.34;102136.03;4975159;28;20552;-88
2021/04/14 00:19:02;;;;;;;13.43;9.10;;;;;;;10.17;66.09;102131.81;4975301;28;20031;-88
2021/04/14 00:21:29;;;;;;;11.65;8.23;;;;;;;10.29;65.68;102136.59;4975152;28;20054;-88
2021/04/14 00:23:55;;;;;;;9.70;8.48;;;;;;;10.43;65.76;102132.59;4974009;28;20038;-88
2021/04/14 00:26:21;;;;;;;16.73;9.13;;;;;;;10.04;67.66;102128.78;4974990;28;20030;-88
2021/04/14 00:28:47;;;;;;;17.80;9.75;;;;;;;10.42;66.66;102125.63;4973714;28;20027;-88
2021/04/14 00:31:13;;;;;;;12.13;8.45;;;;;;;10.47;65.66;102111.41;4975013;28;20072;-88
2021/04/14 00:33:39;;;;;;;11.43;8.48;;;;;;;10.41;65.73;102118.69;4974763;28;20035;-88
2021/04/14 00:36:05;;;;;;;10.60;8.75;;;;;;;10.23;66.58;102125.44;4973702;28;20034;-89
2021/04/14 00:38:31;;;;;;;10.93;7.95;;;;;;;10.17;66.20;102126.56;4974687;28;20023;-88
2021/04/14 00:41:12;;;;;;;8.52;6.97;;;;;;;10.23;66.66;102121.09;4974726;28;20038;-89
2021/04/14 00:43:38;;;;;;;8.67;7.57;;;;;;;10.37;65.62;102115.31;4973582;28;20037;-88
2021/04/14 00:46:05;;;;;;;11.43;8.13;;;;;;;10.43;65.21;102116.84;4974745;28;20352;-88
2021/04/14 00:48:30;;;;;;;9.77;7.40;;;;;;;10.49;64.05;102117.44;4973579;28;20027;-89
2021/04/14 00:50:57;;;;;;;9.02;7.00;;;;;;;10.52;63.75;102116.47;4974499;28;20107;-89
2021/04/14 00:53:22;;;;;;;10.40;8.35;;;;;;;10.49;63.35;102112.19;4972725;28;20449;-89
2021/04/14 00:55:49;;;;;;;12.32;7.97;;;;;;;10.38;63.30;102113.53;4973009;28;20035;-88
2021/04/14 00:58:15;;;;;;;12.68;8.07;;;;;;;10.27;63.27;102108.69;4974382;28;20516;-88
2021/04/14 01:00:46;;;;;;;9.18;7.25;;;;;;;10.15;63.59;102109.16;4974518;28;20067;-88
2021/04/14 01:03:18;;;;;;;9.05;7.40;;;;;;;10.00;64.66;102108.00;4974344;28;20031;-88
2021/04/14 01:05:44;;;;;;;;;;;;;;;9.83;64.61;102111.25;4973549;28;20031;-88
2021/04/14 01:08:09;;;;;;;8.60;7.28;;;;;;;9.89;64.18;102100.50;4972796;28;20329;-88
2021/04/14 01:10:35;;;;;;;10.30;7.32;;;;;;;9.91;63.96;102102.19;4974069;28;20031;-88
2021/04/14 01:13:02;;;;;;;12.35;7.45;;;;;;;9.85;63.80;102099.81;4972823;28;20038;-88
2021/04/14 01:15:33;;;;;;;10.82;7.20;;;;;;;9.67;65.16;102100.47;4974029;28;20027;-88
2021/04/14 01:17:58;;;;;;;9.63;8.20;;;;;;;9.52;65.28;102102.75;4974136;28;20038;-88
2021/04/14 01:20:25;;;;;;;9.98;7.65;;;;;;;9.41;65.63;102094.41;4973970;28;20034;-89
2021/04/14 01:22:50;;;;;;;9.52;7.45;;;;;;;9.40;66.06;102099.69;4974298;28;20077;-88
2021/04/14 01:25:25;;;;;;;8.05;6.70;;;;;;;9.39;65.69;102098.84;4973758;28;20117;-88
2021/04/14 01:27:51;;;;;;;9.48;7.82;;;;;;;9.39;66.07;102095.38;4972741;28;20022;-88
2021/04/14 01:30:28;;;;;;;10.98;7.32;;;;;;;9.48;65.71;102101.16;4973979;28;20374;-88
2021/04/14 01:32:55;;;;;;;8.82;6.45;;;;;;;9.20;65.50;102100.41;4973614;28;20027;-88
2021/04/14 01:35:23;;;;;;;11.40;7.43;;;;;;;9.36;65.06;102105.97;4973484;28;20038;-89
2021/04/14 01:37:49;;;;;;;12.48;7.75;;;;;;;9.45;64.84;102101.25;4973790;28;20102;-88
2021/04/14 01:40:16;;;;;;;12.02;6.95;;;;;;;9.35;65.48;102102.50;4972487;28;20239;-88
2021/04/14 01:42:42;;;;;;;10.32;8.07;;;;;;;9.28;64.90;102101.88;4973126;28;20026;-88
2021/04/14 01:45:11;;;;;;;8.52;7.53;;;;;;;9.33;65.09;102104.31;4972443;28;20111;-88
2021/04/14 01:47:37;;;;;;;10.75;7.75;;;;;;;9.26;65.49;102105.44;4973709;28;20035;-87
2021/04/14 01:50:05;;;;;;;7.88;6.93;;;;;;;9.17;65.96;102105.78;4973588;28;20034;-88
2021/04/14 01:52:30;;;;;;;9.00;7.28;;;;;;;9.29;66.02;102100.94;4973332;28;20386;-89
2021/04/14 01:54:55;;;;;;;9.23;7.32;;;;;;;9.25;65.29;102108.97;4973376;28;20023;-88
2021/04/14 01:57:21;;;;;;;7.88;6.25;;;;;;;9.26;66.13;102108.06;4971769;28;20065;-88
2021/04/14 01:59:46;;;;;;;8.80;6.70;;;;;;;9.21;66.10;102107.38;4973235;28;20034;-88
2021/04/14 02:02:12;;;;;;;8.85;6.88;;;;;;;9.20;65.88;102116.13;4971900;28;20023;-88
2021/04/14 02:04:37;;;;;;;8.48;7.05;;;;;;;9.21;65.78;102107.38;4973272;28;20022;-88
2021/04/14 02:07:03;;;;;;;9.13;7.07;;;;;;;9.20;65.33;102110.88;4972177;28;20065;-88
2021/04/14 02:09:29;;;;;;;9.10;7.15;;;;;;;9.02;65.45;102113.22;4972073;28;20023;-88
2021/04/14 02:11:54;;;;;;;9.77;8.07;;;;;;;8.84;68.46;102116.47;4973255;28;20033;-88
2021/04/14 02:14:20;;;;;;;11.57;8.35;;;;;;;8.87;68.01;102119.00;4971383;28;20027;-87
2021/04/14 02:16:45;;;;;;;10.35;7.97;;;;;;;8.85;68.52;102120.84;4973098;28;20023;-87
2021/04/14 02:19:11;;;;;;;9.93;7.55;;;;;;;9.04;67.28;102111.41;4971726;28;20037;-88
2021/04/14 02:21:36;;;;;;;10.63;7.85;;;;;;;9.11;66.90;102117.31;4971905;28;20118;-88
2021/04/14 02:24:02;;;;;;;10.05;7.57;;;;;;;8.92;66.85;102111.84;4973479;28;20027;-87
2021/04/14 02:26:28;;;;;;;8.43;7.20;;;;;;;8.72;67.90;102123.84;4972488;28;20448;-88
2021/04/14 02:28:54;;;;;;;11.15;7.55;;;;;;;8.93;66.68;102116.19;4972922;28;20070;-88
2021/04/14 02:31:31;;;;;;;10.18;8.10;;;;;;;8.94;66.24;102123.13;4972933;28;20113;-88
2021/04/14 02:33:59;;;;;;;9.90;7.28;;;;;;;8.70;66.72;102112.56;4972819;28;20023;-88
2021/04/14 02:36:24;;;;;;;10.18;7.68;;;;;;;8.66;67.58;102120.56;4972305;28;20031;-88
2021/04/14 02:38:50;;;;;;;12.73;9.15;;;;;;;8.65;67.71;102124.97;4972898;28;20097;-88
2021/04/14 02:41:16;;;;;;;10.50;8.05;;;;;;;8.47;68.55;102125.53;4972661;28;20042;-87
2021/04/14 02:43:41;;;;;;;11.38;8.35;;;;;;;8.49;68.10;102123.72;4972702;28;20030;-87
2021/04/14 02:46:07;;;;;;;12.27;9.13;;;;;;;8.58;68.08;102126.06;4972990;28;20027;-88
2021/04/14 02:48:32;;;;;;;12.70;9.25;;;;;;;8.39;69.05;102119.66;4972768;28;20022;-88
2021/04/14 02:50:58;;;;;;;10.77;8.55;;;;;;;8.20;68.68;102120.22;4972274;28;20019;-88
2021/04/14 02:53:23;;;;;;;11.27;9.40;;;;;;;7.98;69.97;102121.75;4972860;28;20101;-88
2021/04/14 02:55:48;;;;;;;14.70;10.15;;;;;;;7.87;70.19;102120.31;4972671;28;20015;-88
2021/04/14 02:58:14;;;;;;;12.27;8.00;;;;;;;7.78;70.58;102125.84;4971334;28;20038;-88
2021/04/14 03:00:39;;;;;;;12.25;8.93;;;;;;;7.71;70.22;102121.66;4972838;28;20037;-88
2021/04/14 03:03:05;;;;;;;12.10;9.35;;;;;;;8.01;67.91;102119.91;4972464;28;20034;-87
2021/04/14 03:05:33;;;;;;;13.18;9.70;;;;;;;8.04;68.25;102125.06;4971211;28;20122;-88
2021/04/14 03:07:59;;;;;;;13.35;9.95;;;;;;;8.07;69.15;102121.50;4972581;28;20058;-87
2021/04/14 03:10:25;;;;;;;12.93;9.80;;;;;;;7.73;70.17;102112.88;4972529;28;20512;-88
2021/04/14 03:12:51;;;;;;;15.23;10.75;;;;;;;7.69;71.08;102126.09;4972535;28;20105;-88
2021/04/14 03:15:21;;;;;;;14.60;10.00;;;;;;;7.76;70.95;102127.63;4971325;28;20117;-88
2021/04/14 03:17:46;;;;;;;12.65;9.13;;;;;;;7.75;70.48;102110.22;4972502;28;20033;-89
2021/04/14 03:20:12;;;;;;;13.85;9.85;;;;;;;8.04;70.03;102111.13;4972256;28;20118;-88
2021/04/14 03:22:38;;;;;;;12.90;9.68;;;;;;;8.09;68.96;102115.31;4972534;28;20034;-88
2021/04/14 03:25:05;;;;;;;15.57;10.38;;;;;;;8.13;69.97;102105.59;4972422;28;20030;-88
2021/04/14 03:27:30;;;;;;;14.18;9.93;;;;;;;8.17;70.21;102111.59;4972503;28;20030;-88
2021/04/14 03:29:55;;;;;;;16.05;9.80;;;;;;;8.28;69.94;102113.00;4972520;28;20474;-88
2021/04/14 03:32:21;;;;;;;12.52;9.98;;;;;;;8.36;70.28;102107.53;4972222;28;20085;-89
2021/04/14 03:34:46;;;;;;;11.98;8.57;;;;;;;8.41;70.99;102099.50;4972303;28;20543;-89
2021/04/14 03:37:12;;;;;;;15.93;11.38;;;;;;;8.66;70.03;102105.69;4972100;28;20031;-88
2021/04/14 03:39:37;;;;;;;16.83;11.57;;;;;;;8.89;69.25;102106.72;4972304;28;20109;-88
2021/04/14 03:42:03;;;;;;;13.50;9.75;;;;;;;8.95;68.65;102105.66;4971060;28;20027;-89
2021/04/14 03:44:33;;;;;;;17.58;11.05;;;;;;;8.85;69.77;102105.13;4972300;28;20058;-89
2021/04/14 03:46:58;;;;;;;14.23;10.57;;;;;;;8.92;69.02;102101.34;4972312;28;20031;-88
2021/04/14 03:49:24;;;;;;;16.15;10.75;;;;;;;9.01;69.50;102100.22;4974182;28;20030;-89
2021/04/14 03:51:49;;;;;;;12.55;10.27;;;;;;;8.97;69.84;102099.44;4974403;28;20026;-88
2021/04/14 03:54:15;;;;;;;14.77;10.50;;;;;;;8.92;70.42;102094.34;4975683;28;20457;-89
2021/04/14 03:56:40;;;;;;;18.65;11.82;;;;;;;8.77;71.39;102088.78;4975626;28;20027;-88
2021/04/14 03:59:06;;;;;;;16.42;11.05;;;;;;;8.90;71.81;102095.31;4975495;28;20493;-88
2021/04/14 04:01:32;;;;;;;14.05;10.90;;;;;;;9.04;70.58;102095.69;4975783;28;20030;-89
2021/04/14 04:03:58;;;;;;;13.52;10.50;;;;;;;8.85;71.29;102100.72;4973720;28;20374;-88
2021/04/14 04:06:24;;;;;;;14.23;9.90;;;;;;;8.82;71.77;102092.94;4974032;28;20027;-88
2021/04/14 04:08:51;;;;;;;13.45;9.50;;;;;;;8.87;71.62;102092.81;4975234;28;20027;-88
2021/04/14 04:11:19;;;;;;;13.10;9.75;;;;;;;8.90;71.44;102097.94;4975466;28;20023;-88
2021/04/14 04:13:45;;;;;;;14.05;10.35;;;;;;;9.11;70.16;102096.34;4975296;28;20477;-88
2021/04/14 04:16:10;;;;;;;14.88;10.23;;;;;;;9.17;70.29;102101.38;4975290;28;20031;-88
2021/04/14 04:18:36;;;;;;;10.48;9.10;;;;;;;9.25;69.77;102093.25;4974848;28;20105;-88
2021/04/14 04:21:05;;;;;;;13.07;9.38;;;;;;;9.31;68.93;102106.13;4973592;28;20038;-88
2021/04/14 04:23:31;;;;;;;14.85;9.88;;;;;;;9.29;69.20;102103.56;4974097;28;20042;-88
2021/04/14 04:25:57;;;;;;;12.50;9.88;;;;;;;9.39;69.25;102101.47;4975071;28;20027;-88
2021/04/14 04:28:23;;;;;;;15.77;10.25;;;;;;;9.47;68.55;102104.66;4975099;28;20433;-88
2021/04/14 04:30:50;;;;;;;14.73;10.13;;;;;;;9.48;68.57;102110.78;4973873;28;20433;-88
2021/04/14 04:33:16;;;;;;;17.83;11.60;;;;;;;9.53;69.00;102109.69;4974682;28;20401;-88
2021/04/14 04:35:41;;;;;;;17.23;10.88;;;;;;;9.25;69.63;102109.81;4973621;28;20033;-88
2021/04/14 04:38:07;;;;;;;14.93;10.20;;;;;;;9.49;69.17;102102.84;4973423;28;20030;-88
2021/04/14 04:40:32;;;;;;;15.90;9.63;;;;;;;9.57;68.91;102109.59;4973557;28;20023;-88
2021/04/14 04:42:58;;;;;;;16.00;11.02;;;;;;;9.57;68.77;102104.34;4974597;28;20504;-88
2021/04/14 04:45:26;;;;;;;15.05;10.55;;;;;;;9.55;68.59;102104.41;4974744;28;20469;-88
2021/04/14 04:47:52;;;;;;;13.88;10.20;;;;;;;9.55;67.84;102109.63;4973106;28;20023;-88
2021/04/14 04:50:18;;;;;;;12.77;9.98;;;;;;;9.52;68.13;102102.75;4974321;28;20445;-88
2021/04/14 04:52:43;;;;;;;14.40;10.43;;;;;;;9.53;67.55;102108.84;4973040;28;20019;-88
2021/04/14 04:55:11;;;;;;;11.95;9.45;;;;;;;9.54;67.55;102105.31;4974486;28;20081;-88
2021/04/14 04:57:36;;;;;;;14.38;10.40;;;;;;;9.48;67.95;102100.31;4972979;28;20038;-88
2021/04/14 05:00:05;;;;;;;13.27;10.48;;;;;;;9.45;67.81;102106.50;4974029;28;20019;-89
2021/04/14 05:02:30;;;;;;;17.77;10.40;;;;;;;9.44;67.49;102104.81;4974212;28;20027;-88
2021/04/14 05:04:56;;;;;;;11.80;8.77;;;;;;;9.43;67.29;102110.94;4972718;28;20023;-88
2021/04/14 05:07:21;;;;;;;14.50;9.70;;;;;;;9.33;67.46;102107.78;4974191;28;20019;-88
2021/04/14 05:09:46;;;;;;;14.40;8.82;;;;;;;9.40;67.83;102110.19;4974320;28;20037;-88
2021/04/14 05:12:12;;;;;;;12.07;9.85;;;;;;;9.21;68.28;102113.47;4972918;28;20031;-88
2021/04/14 05:14:37;;;;;;;12.45;9.35;;;;;;;9.15;68.06;102118.94;4974171;28;20033;-88
2021/04/14 05:17:03;;;;;;;14.25;9.35;;;;;;;9.15;68.44;102120.69;4974151;28;20023;-88
2021/04/14 05:19:28;;;;;;;11.65;9.20;;;;;;;9.19;68.04;102124.94;4972625;28;20023;-89
2021/04/14 05:21:55;;;;;;;15.18;11.65;;;;;;;9.17;68.48;102126.75;4953348;29;20038;-89
2021/04/14 05:24:21;;;;;;;15.85;10.35;;;;;;;9.15;68.21;102124.16;4953839;29;20027;-89
2021/04/14 05:26:46;;;;;;;14.50;10.02;;;;;;;9.09;68.29;102124.38;4954717;28;20033;-88
2021/04/14 05:29:11;;;;;;;15.73;11.02;;;;;;;9.00;68.90;102120.28;4954695;28;20031;-89
2021/04/14 05:31:39;;;;;;;16.67;11.27;;;;;;;9.03;69.46;102129.84;4954604;28;20023;-89
2021/04/14 05:34:04;;;;;;;15.95;10.93;;;;;;;9.06;69.33;102130.59;4967870;28;20078;-89
2021/04/14 05:36:30;;;;;;;15.85;11.43;;;;;;;9.09;68.74;102140.09;4973074;28;20038;-88
2021/04/14 05:38:56;;;;;;;15.75;11.85;;;;;;;9.12;69.66;102129.50;4973481;28;20433;-88
2021/04/14 05:41:22;;;;;;;17.23;11.85;;;;;;;9.13;69.04;102137.31;4972597;28;20034;-88
2021/04/14 05:43:48;;;;;;;13.35;11.00;;;;;;;9.19;69.37;102138.03;4973168;28;20054;-88
2021/04/14 05:46:17;;;;;;;16.58;11.32;;;;;;;9.19;69.36;102140.66;4973634;28;20520;-88
2021/04/14 05:48:44;;;;;;;17.40;12.48;;;;;;;9.13;69.73;102153.03;4970504;28;20019;-88
2021/04/14 05:51:12;;;;;;;17.05;12.63;;;;;;;9.09;70.41;102147.97;4971579;28;20030;-88
2021/04/14 05:53:39;;;;;;;15.05;11.68;;;;;;;9.20;69.54;102142.34;4973313;28;20164;-88
2021/04/14 05:56:08;;;;;;;17.20;11.85;;;;;;;9.13;69.96;102150.41;4973432;28;20055;-88
2021/04/14 05:58:34;;;;;;;21.27;12.95;;;;;;;9.26;70.38;102148.25;4972008;28;20058;-88
2021/04/14 06:01:00;;;;;;;19.63;12.52;;;;;;;9.26;69.29;102147.38;4972191;28;20481;-88
2021/04/14 06:03:26;;;;;;;18.42;12.98;;;;;;;9.33;69.34;102149.72;4971840;28;20035;-89
2021/04/14 06:05:52;;;;;;;17.20;11.55;;;;;;;9.44;68.69;102149.38;4973388;28;20030;-88
2021/04/14 06:08:18;;;;;;;17.35;12.05;;;;;;;9.52;68.35;102160.44;4970888;28;20465;-88
2021/04/14 06:10:43;;;;;;;15.75;11.52;;;;;;;9.63;68.04;102162.66;4971153;28;20034;-88
2021/04/14 06:13:08;;;;;;;15.75;11.65;;;;;;;9.63;67.77;102157.41;4972750;28;20030;-90
2021/04/14 06:15:34;;;;;;;15.75;12.20;;;;;;;9.62;67.32;102165.38;4972643;28;20604;-88
2021/04/14 06:18:01;;;;;;;16.48;11.43;;;;;;;9.67;67.60;102168.66;4971643;28;20023;-89
2021/04/14 06:20:28;;;;;;;15.65;11.63;;;;;;;9.63;68.25;102169.69;4972358;28;20080;-89
2021/04/14 06:22:57;;;;;;;14.85;11.38;;;;;;;9.61;67.09;102174.13;4972946;28;20035;-89
2021/04/14 06:25:23;;;;;;;17.73;12.70;;;;;;;9.50;68.81;102174.53;4973097;28;20030;-89
2021/04/14 06:27:56;;;;;;;18.63;13.00;;;;;;;9.59;68.34;102178.56;4972635;28;20027;-89
2021/04/14 06:30:22;;;;;;;18.55;11.75;;;;;;;9.64;68.34;102179.28;4972755;28;20422;-89
2021/04/14 06:32:48;;;;;;;17.70;11.73;;;;;;;9.71;67.06;102186.84;4971544;28;20030;-88
2021/04/14 06:35:15;;;;;;;17.48;12.57;;;;;;;9.82;67.55;102188.25;4973016;28;20055;-89
2021/04/14 06:37:41;;;;;;;16.15;11.27;;;;;;;9.92;67.00;102187.84;4972740;28;20481;-89
2021/04/14 06:43:11;;;;;;;17.02;12.73;;;;;;;10.36;65.19;102188.88;4972276;28;20374;-89
2021/04/14 06:45:51;;;;;;;19.08;13.95;;;;;;;10.55;65.74;102189.03;4971269;28;20043;-89
2021/04/14 06:48:47;;;;;;;27.67;13.27;;;;;;;10.86;64.74;102188.66;4962202;28;20030;-89
2021/04/14 06:51:47;;;;;;;18.35;12.55;;;;;;;11.79;61.74;102199.63;4970972;28;20065;-90
2021/04/14 06:54:21;;;;;;;18.55;12.27;;;;;;;13.02;57.40;102185.94;4957186;28;20038;-88
2021/04/14 06:56:52;;;;;;;16.40;11.20;;;;;;;14.31;53.34;102182.78;4971520;28;20026;-88
2021/04/14 06:59:23;;;;;;;20.95;12.50;;;;;;;14.67;50.77;102190.47;4972284;28;20039;-89
2021/04/14 07:01:57;;;;;;;15.85;12.05;;;;;;;15.43;49.81;102186.94;4972515;28;20034;-89
2021/04/14 07:04:40;;;;;;;17.17;11.80;;;;;;;15.34;48.68;102190.13;4972467;28;20069;-89
2021/04/14 07:07:09;;;;;;;12.93;9.65;;;;;;;16.42;46.68;102192.31;4970989;28;20031;-89
2021/04/14 07:09:42;;;;;;;18.00;10.38;;;;;;;17.65;43.33;102186.75;4969919;28;20030;-88
2021/04/14 07:12:12;;;;;;;15.25;10.88;;;;;;;18.73;40.63;102187.06;4969989;28;20437;-88
2021/04/14 07:14:39;;;;;;;151.60;21.20;;;;;;;18.78;39.82;102183.09;4971463;28;20039;-88
2021/04/14 07:17:32;;;;;;;41.63;11.93;;;;;;;19.09;39.08;102186.13;4972677;28;20030;-88
2021/04/14 07:20:14;;;;;;;17.10;9.75;;;;;;;19.37;37.66;102187.56;4971986;28;20027;-88
2021/04/14 07:23:01;;;;;;;17.88;10.30;;;;;;;18.97;39.38;102190.56;4975376;28;20034;-87
2021/04/14 07:25:42;;;;;;;13.68;9.73;;;;;;;19.51;38.08;102183.81;4974198;28;20034;-89
2021/04/14 07:28:14;;;;;;;11.82;10.02;;;;;;;19.90;37.20;102191.47;4976051;28;20106;-88
2021/04/14 07:30:47;;;;;;;14.35;10.73;;;;;;;19.77;36.67;102192.47;4975311;28;20082;-88
2021/04/14 07:33:37;;;;;;;13.52;9.70;;;;;;;20.57;36.29;102187.84;4960442;28;20031;-89
2021/04/14 07:36:05;;;;;;;10.40;8.60;;;;;;;20.81;35.64;102193.00;4970875;28;20023;-93
2021/04/14 07:38:47;;;;;;;12.77;9.75;;;;;;;21.24;34.94;102184.06;4970667;28;20038;-93
2021/04/14 07:41:44;;;;;;;12.60;9.65;;;;;;;21.37;33.95;102179.34;4972940;28;20038;-88
2021/04/14 07:44:19;;;;;;;12.30;9.50;;;;;;;21.02;34.46;102184.19;4958440;28;20097;-88
2021/04/14 07:46:47;;;;;;;14.52;10.70;;;;;;;20.98;34.99;102181.75;4970270;28;20222;-89
2021/04/14 07:49:15;;;;;;;16.02;8.88;;;;;;;21.60;33.59;102173.88;4973881;28;20102;-89
2021/04/14 07:51:41;;;;;;;11.80;8.52;;;;;;;21.92;33.28;102172.88;4972326;28;20026;-90
2021/04/14 07:54:14;;;;;;;13.93;8.95;;;;;;;22.25;31.94;102174.41;4932846;28;20440;-89
2021/04/14 07:56:43;;;;;;;12.20;9.80;;;;;;;21.63;32.91;102170.94;4974637;28;20022;-90
2021/04/14 07:59:14;;;;;;;10.80;9.60;;;;;;;22.50;31.91;102169.53;4976332;28;20031;-90
2021/04/14 08:01:56;;;;;;;15.02;9.20;;;;;;;22.64;31.15;102179.81;4973270;28;20122;-90
2021/04/14 08:04:32;;;;;;;14.80;9.25;;;;;;;22.88;30.66;102175.84;4973174;28;20027;-89
2021/04/14 11:26:54;;;;;;;5.88;5.22;;;;;;;30.46;14.64;102132.94;5105899;27;20398;-87
2021/04/14 11:29:38;;;;;;;6.28;4.85;;;;;;;28.70;17.36;102144.53;5088762;28;20028;-88
2021/04/14 11:32:16;;;;;;;6.57;5.65;;;;;;;28.29;16.52;102148.34;5088723;28;20390;-92
2021/04/14 11:34:41;;;;;;;9.23;5.40;;;;;;;26.65;18.00;102146.97;5087217;28;20078;-92
2021/04/14 11:37:29;;;;;;;5.57;4.82;;;;;;;26.78;18.31;102149.16;5089579;28;20020;-91
2021/04/14 11:39:54;;;;;;;8.73;6.55;;;;;;;24.60;20.09;102150.47;5083284;28;20020;-88
2021/04/14 11:42:22;;;;;;;9.85;6.20;;;;;;;24.71;21.04;102144.88;5088447;28;20036;-88
2021/04/14 11:44:57;;;;;;;6.25;5.32;;;;;;;24.91;20.01;102140.16;5088060;28;20157;-89
2021/04/14 11:47:25;;;;;;;6.97;4.65;;;;;;;24.63;20.88;102142.13;5088618;28;20101;-93
2021/04/14 11:49:52;;;;;;;7.40;4.15;;;;;;;24.25;21.58;102141.38;5079362;28;20035;-92
2021/04/14 11:52:34;;;;;;;7.35;5.10;;;;;;;23.45;21.51;102147.28;5084462;28;20106;-92
2021/04/14 11:55:22;;;;;;;6.00;4.85;;;;;;;23.14;22.84;102143.97;5086267;28;20081;-92
2021/04/14 11:57:57;;;;;;;5.72;5.07;;;;;;;22.97;23.53;102143.72;5081577;28;20021;-92
2021/04/14 12:00:37;;;;;;;7.30;4.57;;;;;;;23.25;24.19;102146.50;5082357;28;20119;-93
2021/04/14 12:03:28;;;;;;;8.45;4.82;;;;;;;23.19;24.03;102147.09;5088335;28;20715;-93
2021/04/14 12:05:57;;;;;;;9.80;5.40;;;;;;;22.45;23.86;102140.47;5087573;28;20443;-92
2021/04/14 12:08:23;;;;;;;10.15;5.90;;;;;;;21.41;25.33;102136.34;5091365;28;20025;-92
2021/04/14 12:10:48;;;;;;;8.35;5.65;;;;;;;21.78;25.06;102139.31;5090164;28;20024;-94
2021/04/14 12:13:14;;;;;;;6.40;4.75;;;;;;;22.05;24.79;102144.06;5084993;28;20020;-90
2021/04/14 12:15:39;;;;;;;11.20;5.25;;;;;;;21.74;25.78;102138.78;5088334;28;20107;-91
2021/04/14 12:18:05;;;;;;;7.25;6.15;;;;;;;21.21;25.01;102141.59;5090110;28;20096;-91
2021/04/14 12:20:31;;;;;;;6.95;5.78;;;;;;;21.10;25.22;102147.00;5086504;28;20035;-90
2021/04/14 12:22:56;;;;;;;11.20;6.95;;;;;;;21.06;25.35;102153.56;5088565;28;20077;-91
2021/04/14 12:25:22;;;;;;;7.38;6.55;;;;;;;20.79;27.00;102153.13;5076270;28;20052;-89
2021/04/14 12:27:48;;;;;;;11.07;6.55;;;;;;;20.40;28.13;102146.56;5088183;28;20032;-91
2021/04/14 12:30:15;;;;;;;8.35;6.05;;;;;;;20.38;26.78;102153.84;5088218;28;20097;-90
2021/04/14 12:32:41;;;;;;;7.97;5.95;;;;;;;20.41;28.14;102156.25;5086971;28;20166;-91
2021/04/14 12:35:07;;;;;;;9.55;6.88;;;;;;;20.48;27.44;102144.09;5087624;28;20103;-92
2021/04/14 12:37:33;;;;;;;12.45;8.00;;;;;;;20.11;27.42;102152.44;5082543;28;20036;-91
2021/04/14 12:39:58;;;;;;;12.05;8.60;;;;;;;20.45;27.65;102151.50;5075678;28;20414;-91
2021/04/14 12:42:25;;;;;;;12.35;8.65;;;;;;;20.39;27.64;102156.38;5074798;28;20051;-92
2021/04/14 12:44:52;;;;;;;9.30;8.32;;;;;;;20.21;27.19;102148.06;5075314;28;20467;-89
2021/04/14 12:47:21;;;;;;;11.57;7.72;;;;;;;20.40;27.73;102149.22;5081495;28;20027;-89
2021/04/14 12:49:48;;;;;;;16.23;8.55;;;;;;;20.40;27.89;102151.91;5074134;28;20052;-88
2021/04/14 12:52:40;;;;;;;11.05;8.80;;;;;;;20.09;28.67;102146.38;5073464;28;20032;-90
2021/04/14 12:55:13;;;;;;;11.35;8.48;;;;;;;20.41;28.71;102151.75;5070355;28;20042;-90
2021/04/14 12:57:41;;;;;;;8.95;7.97;;;;;;;20.49;28.79;102150.28;5068239;28;20032;-87
2021/04/14 13:00:19;;;;;;;9.02;7.88;;;;;;;20.39;27.94;102144.84;5059924;28;20035;-88
2021/04/14 13:02:49;;;;;;;11.07;8.10;;;;;;;21.02;28.40;102147.63;5072414;28;20032;-88
2021/04/14 13:05:29;;;;;;;11.63;8.15;;;;;;;20.71;27.72;102144.88;5074059;28;20124;-90
2021/04/14 13:08:11;;;;;;;11.25;8.75;;;;;;;20.75;27.46;102146.34;5074877;28;20025;-91
2021/04/14 13:10:39;;;;;;;14.07;8.93;;;;;;;21.04;26.76;102145.69;5074625;28;20024;-90
2021/04/14 13:13:05;;;;;;;13.73;8.85;;;;;;;20.89;27.12;102142.50;5062628;28;20029;-90
2021/04/14 13:15:50;;;;;;;10.18;8.68;;;;;;;20.71;26.65;102149.38;5070868;28;20025;-91
2021/04/14 13:18:16;;;;;;;12.32;8.70;;;;;;;20.87;26.85;102149.78;5079443;28;20078;-91
2021/04/14 13:20:41;;;;;;;15.32;8.80;;;;;;;21.22;26.96;102145.09;5074220;28;20028;-91
2021/04/14 13:23:08;;;;;;;15.00;8.82;;;;;;;21.47;25.99;102141.19;5075119;28;20028;-88
2021/04/14 13:26:02;;;;;;;9.85;8.18;;;;;;;21.91;27.04;102139.09;5067062;28;20071;-91
2021/04/14 13:28:53;;;;;;;12.90;7.47;;;;;;;22.18;26.56;102139.31;5078290;28;20033;-90
2021/04/14 13:31:33;;;;;;;8.95;7.22;;;;;;;22.25;26.00;102141.44;5066168;28;20507;-91
2021/04/14 13:34:06;;;;;;;11.27;8.32;;;;;;;21.68;25.93;102133.97;5072470;28;20061;-90
2021/04/14 13:36:51;;;;;;;7.97;7.18;;;;;;;21.68;26.40;102135.78;5072841;28;20115;-91
2021/04/14 13:39:35;;;;;;;8.55;7.10;;;;;;;21.44;25.38;102136.94;5074124;28;20021;-91
2021/04/14 13:42:12;;;;;;;9.52;7.47;;;;;;;20.74;27.11;102127.78;5071532;28;20021;-90
2021/04/14 13:44:51;;;;;;;10.00;7.90;;;;;;;20.63;27.50;102125.16;5072962;28;20039;-91
2021/04/14 13:47:22;;;;;;;9.02;7.82;;;;;;;20.57;28.27;102131.81;5078988;28;20039;-91
2021/04/14 13:49:56;;;;;;;10.75;8.15;;;;;;;20.58;27.75;102133.53;5076190;28;20020;-90
2021/04/14 13:52:26;;;;;;;10.82;7.10;;;;;;;21.31;26.93;102125.63;5069085;28;20047;-91
2021/04/14 13:54:55;;;;;;;8.75;6.95;;;;;;;21.41;25.72;102131.84;5061895;28;20510;-92
2021/04/14 13:57:24;;;;;;;9.55;7.68;;;;;;;21.09;25.63;102132.81;5071571;28;20107;-91
2021/04/14 14:00:06;;;;;;;6.60;5.90;;;;;;;21.53;26.12;102121.94;5068150;28;20390;-91
2021/04/14 14:02:44;;;;;;;10.27;7.13;;;;;;;21.23;27.07;102120.94;5072862;28;20032;-91
2021/04/14 14:05:21;;;;;;;11.68;7.50;;;;;;;20.81;27.11;102131.59;5071012;28;20482;-91
2021/04/14 14:07:53;;;;;;;10.68;7.25;;;;;;;20.56;27.10;102125.63;5070882;28;20028;-91
2021/04/14 14:10:29;;;;;;;8.05;7.18;;;;;;;20.29;27.76;102127.91;5073382;28;20024;-91
2021/04/14 14:13:04;;;;;;;8.77;7.75;;;;;;;20.17;26.76;102113.75;5072380;28;20043;-93
2021/04/14 14:15:36;;;;;;;9.38;7.28;;;;;;;20.37;27.21;102120.13;5073183;28;20032;-91
2021/04/14 14:18:01;;;;;;;11.57;7.65;;;;;;;20.58;26.29;102118.34;5086069;28;20111;-92
2021/04/14 14:20:29;;;;;;;9.38;7.85;;;;;;;20.16;26.78;102118.25;5073660;28;20110;-92
2021/04/14 14:23:08;;;;;;;10.77;8.57;;;;;;;19.80;28.61;102111.41;5064577;28;20052;-92
2021/04/14 14:25:33;;;;;;;13.10;8.63;;;;;;;19.61;28.91;102112.84;5072891;28;20113;-92
2021/04/14 14:27:59;;;;;;;15.43;8.85;;;;;;;19.16;30.67;102112.81;5073243;28;20060;-91
2021/04/14 14:30:27;;;;;;;9.18;8.20;;;;;;;20.14;27.42;102111.34;5072496;28;20474;-91
2021/04/14 14:32:52;;;;;;;11.55;9.13;;;;;;;20.20;27.50;102109.03;5071750;28;20437;-91
2021/04/14 14:35:19;;;;;;;10.88;8.38;;;;;;;20.89;27.73;102109.59;5067734;28;20032;-90
2021/04/14 14:37:51;;;;;;;9.85;8.35;;;;;;;19.73;29.33;102108.38;5081060;28;20023;-90
2021/04/14 14:40:26;;;;;;;11.55;8.80;;;;;;;20.42;28.22;102107.25;5072954;28;20031;-90
2021/04/14 14:43:05;;;;;;;10.73;7.93;;;;;;;20.58;27.75;102102.34;5070741;28;20471;-91
2021/04/14 14:45:35;;;;;;;9.93;7.55;;;;;;;20.31;27.93;102107.28;5070629;28;20123;-90
2021/04/14 14:48:34;;;;;;;9.60;7.50;;;;;;;20.22;28.31;102103.53;5076108;28;20020;-91
2021/04/14 14:51:02;;;;;;;9.88;8.52;;;;;;;20.13;28.05;102104.31;5055434;28;20048;-90
2021/04/14 14:53:29;;;;;;;11.25;8.25;;;;;;;20.79;27.40;102096.19;5071917;28;20025;-90
2021/04/14 14:56:07;;;;;;;7.10;6.40;;;;;;;20.56;27.40;102090.94;5071704;28;20029;-90